Latest Weather Observations for Omeo

IDV60801

Issued at 1:32 pm EST Tuesday 22 August 2017 (issued every 30 minutes, with the page automatically refreshed every 10 minutes)

About weather observations | Map of weather stations | Latest weather observations for VIC | Other Formats
Station Details ID: 083090 Name: OMEO Lat: -37.10 Lon: 147.60 Height: 689.8 m
Data from the previous 72 hours. | See also: Recent months at Omeo
Date/Time
EST
Temp
°C
App
Temp
°C
Dew
Point
°C
Rel
Hum
%
Delta-T
°C
Wind Press
QNH
hPa
Press
MSL
hPa
Rain since
9am
mm
Dir  Spd
km/h
Gust
km/h
Spd
kts
Gust
kts
22/01:30pm 13.4 8.6 2.6 48 4.9 N 17 24 9 13 1017.2 1018.0 0.0
22/01:00pm 13.0 9.2 3.7 53 4.3 N 13 19 7 10 1017.4 1018.2 0.0
22/12:30pm 11.9 7.6 3.2 55 4.0 N 15 20 8 11 1017.8 1018.6 0.0
22/12:00pm 11.4 6.8 3.9 60 3.5 N 17 22 9 12 1018.3 1019.1 0.0
22/11:30am 9.8 5.1 2.9 62 3.1 N 17 22 9 12 1018.7 1019.5 0.0
22/11:00am 8.9 4.1 2.5 64 2.8 N 17 24 9 13 1019.0 1019.8 0.0
22/10:30am 7.8 2.9 2.1 67 2.5 N 17 22 9 12 1019.2 1020.1 0.0
22/10:00am 6.1 1.9 1.6 73 1.9 N 13 19 7 10 1019.4 1020.3 0.0
22/09:30am 4.7 0.5 1.9 82 1.2 N 13 17 7 9 1019.7 1020.5 0.0
22/09:00am 3.2 -0.3 1.1 86 0.8 NNW 9 11 5 6 1019.5 1020.4 0.0
22/08:30am 1.5 -1.5 0.5 93 0.4 NNW 6 7 3 4 1019.4 1020.3 0.0
22/08:00am -0.1 -3.5 -0.7 96 0.2 N 7 9 4 5 1019.2 1020.1 0.0
22/07:30am -0.7 -4.0 -1.1 97 0.1 NW 6 9 3 5 1018.9 1019.7 0.0
22/07:00am -0.7 -4.6 -1.4 95 0.2 NNW 9 13 5 7 1018.5 1019.3 0.0
22/06:30am -0.2 -3.7 -1.0 94 0.3 NNW 7 13 4 7 1018.2 1019.0 0.0
22/06:00am 0.3 -4.3 -0.7 93 0.4 N 13 19 7 10 1017.8 1018.6 0.0
22/05:30am 0.5 -3.3 -0.6 92 0.4 NNW 9 13 5 7 1017.6 1018.4 0.0
22/05:00am 1.3 -1.8 0.0 91 0.5 N 6 7 3 4 1017.5 1018.3 0.0
22/04:30am 1.9 -0.8 0.4 90 0.6 NW 4 7 2 4 1017.2 1018.0 0.0
22/04:00am 2.3 -0.9 0.5 88 0.7 NNW 7 9 4 5 1016.9 1017.7 0.0
22/03:30am 3.0 0.0 0.9 86 0.8 N 6 7 3 4 1016.8 1017.6 0.0
22/03:00am 3.3 -0.2 1.2 86 0.8 NNE 9 13 5 7 1016.6 1017.3 0.0
22/02:30am 3.4 -0.1 1.3 86 0.8 NNE 9 13 5 7 1016.7 1017.4 0.0
22/02:00am 3.4 0.3 1.3 86 0.8 N 7 11 4 6 1016.8 1017.6 0.0
22/01:30am 3.7 0.2 1.4 85 0.9 N 9 15 5 8 1016.9 1017.7 0.0
22/01:00am 3.4 -0.1 1.0 84 1.0 NNW 9 13 5 7 1016.8 1017.6 0.0
22/12:30am 4.1 0.6 1.0 80 1.3 N 9 13 5 7 1016.8 1017.6 0.0
22/12:00am 4.2 0.6 0.9 79 1.3 NNW 9 13 5 7 1016.9 1017.7 0.0
 
Date/Time
EST
Temp
°C
App
Temp
°C
Dew
Point
°C
Rel
Hum
%
Delta-T
°C
Wind Press
QNH
hPa
Press
MSL
hPa
Rain since
9am
mm
Dir  Spd
km/h
Gust
km/h
Spd
kts
Gust
kts
21/11:30pm 4.4 1.2 0.7 77 1.5 NNW 7 11 4 6 1017.3 1018.1 0.0
21/11:00pm 4.7 1.5 0.8 76 1.6 NNW 7 11 4 6 1017.4 1018.2 0.0
21/10:30pm 4.9 1.3 0.7 74 1.7 NNW 9 11 5 6 1017.2 1018.0 0.0
21/10:00pm 5.1 1.5 0.5 72 1.9 N 9 13 5 7 1017.1 1017.9 0.0
21/09:30pm 5.0 1.4 0.4 72 1.9 N 9 13 5 7 1017.1 1017.9 0.0
21/09:00pm 5.2 1.9 0.4 71 1.9 N 7 11 4 6 1016.9 1017.7 0.0
21/08:30pm 5.2 1.9 0.0 69 2.1 N 7 11 4 6 1016.7 1017.4 0.0
21/08:00pm 5.4 1.7 0.2 69 2.1 NNE 9 13 5 7 1016.1 1016.9 0.0
21/07:30pm 5.4 1.4 0.2 69 2.1 N 11 15 6 8 1015.8 1016.6 0.0
21/07:00pm 5.5 1.1 0.1 68 2.2 N 13 19 7 10 1015.5 1016.3 0.0
21/06:30pm 5.4 1.7 0.0 68 2.2 N 9 17 5 9 1015.4 1016.1 0.0
21/06:00pm 5.7 1.6 0.1 67 2.3 N 11 17 6 9 1015.0 1015.7 0.0
21/05:30pm 6.1 1.2 -0.4 63 2.6 N 15 19 8 10 1014.8 1015.6 0.0
21/05:00pm 6.5 1.6 -0.5 61 2.8 NNW 15 20 8 11 1014.6 1015.4 0.0
21/04:30pm 6.7 1.0 -0.5 60 2.9 N 19 28 10 15 1014.3 1015.1 0.0
21/04:00pm 7.1 1.2 -0.6 58 3.1 N 20 26 11 14 1014.1 1014.8 0.0
21/03:30pm 7.3 1.6 -0.6 57 3.2 N 19 28 10 15 1014.0 1014.7 0.0
21/03:00pm 7.5 2.1 -1.2 54 3.5 N 17 24 9 13 1013.8 1014.5 0.0
21/02:30pm 7.0 1.2 -1.2 56 3.2 N 19 26 10 14 1014.0 1014.7 0.0
21/02:00pm 7.2 1.9 -0.3 59 3.0 N 17 24 9 13 1014.1 1014.8 0.0
21/01:30pm 6.7 2.4 0.8 66 2.4 N 13 17 7 9 1014.4 1015.2 0.0
21/01:00pm 6.6 2.7 1.3 69 2.2 N 11 19 6 10 1015.0 1015.7 0.0
21/12:30pm 6.0 2.6 1.7 74 1.8 N 9 13 5 7 1015.4 1016.1 0.0
21/12:00pm 5.2 0.9 1.0 74 1.7 N 13 17 7 9 1015.8 1016.6 0.0
21/11:30am 4.8 0.5 0.8 75 1.6 N 13 19 7 10 1016.1 1016.9 0.0
21/11:00am 4.4 0.0 0.4 75 1.6 NNW 13 17 7 9 1016.4 1017.2 0.0
21/10:30am 4.3 -0.9 0.3 75 1.6 N 17 22 9 12 1016.9 1017.7 0.0
21/10:00am 4.2 -1.1 -0.4 72 1.8 N 17 24 9 13 1017.1 1017.9 0.0
21/09:30am 4.4 -1.3 -0.8 69 2.0 N 19 28 10 15 1017.2 1018.0 0.0
21/09:00am 4.4 -1.0 -1.6 65 2.3 N 17 26 9 14 1017.2 1018.0 0.0
21/08:30am 3.9 -1.6 -1.9 66 2.2 N 17 26 9 14 1017.0 1017.8 0.0
21/08:00am 3.2 -0.7 -1.7 70 1.8 N 9 13 5 7 1016.9 1017.7 0.0
21/07:30am 3.1 -1.2 -1.8 70 1.8 NNW 11 17 6 9 1016.4 1017.2 0.0
21/07:00am 3.0 -2.1 -1.9 70 1.8 N 15 20 8 11 1016.2 1017.0 0.0
21/06:30am 2.4 -2.2 -1.2 77 1.4 N 13 17 7 9 1016.3 1017.1 0.0
21/06:00am 1.8 -2.4 -0.6 84 0.9 NNW 11 19 6 10 1016.3 1017.1 0.0
21/05:30am 1.4 -2.4 -0.4 88 0.7 NW 9 13 5 7 1016.2 1017.0 0.0
21/05:00am 1.4 -2.7 -0.4 88 0.7 NNW 11 15 6 8 1016.4 1017.2 0.0
21/04:30am 1.5 -3.0 -0.4 87 0.7 NNW 13 19 7 10 1016.4 1017.2 0.0
21/04:00am 1.4 -3.1 -0.4 88 0.7 NNW 13 20 7 11 1016.7 1017.4 0.0
21/03:30am 0.9 -3.2 -0.4 91 0.5 NNW 11 15 6 8 1017.0 1017.8 0.0
21/03:00am 0.6 -3.5 -0.5 92 0.4 NNW 11 13 6 7 1017.1 1017.9 0.0
21/02:30am 0.5 -2.9 -0.6 92 0.4 NW 7 11 4 6 1017.2 1018.0 0.0
21/02:00am 0.5 -3.3 -0.6 92 0.4 NW 9 13 5 7 1017.7 1018.5 0.0
21/01:30am 0.3 -2.9 -0.8 92 0.4 NW 6 9 3 5 1017.9 1018.8 0.0
21/01:00am 0.3 -3.1 -0.8 92 0.4 NW 7 11 4 6 1018.1 1018.9 0.0
21/12:30am 0.6 -2.8 -0.7 91 0.5 NW 7 9 4 5 1018.1 1018.9 0.0
21/12:00am 0.6 -2.2 -0.5 92 0.4 NNW 4 7 2 4 1018.4 1019.2 0.0
 
Date/Time
EST
Temp
°C
App
Temp
°C
Dew
Point
°C
Rel
Hum
%
Delta-T
°C
Wind Press
QNH
hPa
Press
MSL
hPa
Rain since
9am
mm
Dir  Spd
km/h
Gust
km/h
Spd
kts
Gust
kts
20/11:30pm 0.3 -2.5 -0.7 93 0.4 W 4 9 2 5 1018.5 1019.3 0.0
20/11:00pm 0.3 -1.8 -0.8 92 0.4 CALM 0 0 0 0 1018.9 1019.7 0.0
20/10:30pm 0.3 -2.2 -1.0 91 0.5 SE 2 6 1 3 1019.3 1020.2 0.0
20/10:00pm 0.0 -3.5 -1.3 91 0.5 SSE 7 9 4 5 1019.1 1019.9 0.0
20/09:30pm 0.6 -1.5 -1.0 89 0.6 CALM 0 0 0 0 1019.3 1020.2 0.0
20/09:00pm 1.3 -1.2 -0.8 86 0.8 SSW 2 6 1 3 1019.3 1020.2 0.0
20/08:30pm 1.9 -0.2 -0.7 83 1.0 CALM 0 0 0 0 1019.3 1020.2 0.0
20/08:00pm 2.5 0.5 -0.4 81 1.1 CALM 0 0 0 0 1019.4 1020.3 0.0
20/07:30pm 2.8 0.4 -0.6 78 1.3 SSE 2 6 1 3 1019.5 1020.4 0.0
20/07:00pm 4.1 1.3 -0.7 71 1.9 S 4 6 2 3 1019.5 1020.4 0.0
20/06:30pm 4.9 1.7 -0.7 67 2.2 SW 6 9 3 5 1019.3 1020.2 0.0
20/06:00pm 5.2 2.0 -0.4 67 2.2 SSE 6 11 3 6 1019.1 1019.9 0.0
20/05:30pm 6.0 2.6 -0.7 62 2.7 SSE 7 11 4 6 1019.2 1020.1 0.0
20/05:00pm 7.6 3.4 -0.6 56 3.3 SE 11 15 6 8 1019.2 1020.1 0.0
20/04:30pm 9.1 5.4 -0.2 52 3.8 SE 9 17 5 9 1019.3 1020.2 0.0
20/04:00pm 9.1 6.6 -1.0 49 4.1 SSE 2 9 1 5 1019.7 1020.5 0.0
20/03:30pm 9.6 6.3 -1.1 47 4.4 ESE 6 9 3 5 1020.2 1021.0 0.0
20/03:00pm 9.1 6.1 -1.9 46 4.4 ESE 4 7 2 4 1020.4 1021.3 0.0
20/02:30pm 9.4 6.2 -0.8 49 4.2 SSE 6 9 3 5 1020.8 1021.7 0.0
20/02:00pm 9.2 6.1 -0.1 52 3.8 S 6 13 3 7 1021.2 1022.0 0.0
20/01:30pm 8.3 4.4 -1.8 49 4.0 ESE 9 15 5 8 1021.6 1022.4 0.0
20/01:00pm 8.5 5.0 -1.3 50 3.9 SE 7 13 4 7 1022.1 1023.0 0.0
20/12:30pm 7.4 3.5 -1.3 54 3.4 ENE 9 17 5 9 1022.8 1023.6 0.0
20/12:00pm 8.2 4.2 0.2 57 3.3 SE 11 20 6 11 1023.5 1024.4 0.0
20/11:30am 7.5 3.6 -1.2 54 3.5 SSE 9 17 5 9 1024.4 1025.3 0.0
20/11:00am 6.6 2.5 0.1 63 2.6 SSE 11 19 6 10 1024.9 1025.8 0.0
20/10:30am 4.9 1.4 -1.3 64 2.4 SW 7 15 4 8 1025.0 1025.9 0.0
20/10:00am 4.5 0.2 -1.5 65 2.3 SSW 11 17 6 9 1025.1 1026.0 0.0
20/09:30am 4.6 1.1 -1.2 66 2.2 SSW 7 17 4 9 1025.0 1025.9 0.0
20/09:00am 4.0 1.8 0.9 80 1.2 WSW 2 7 1 4 1025.2 1026.1 0.4
20/08:30am 1.3 -0.8 -0.8 86 0.8 CALM 0 6 0 3 1025.5 1026.5 0.4
20/08:00am 0.4 -2.5 -0.9 91 0.5 SSE 4 7 2 4 1025.4 1026.4 0.2
20/07:30am -1.0 -3.7 -2.3 91 0.4 WNW 2 7 1 4 1025.4 1026.4 0.2
20/07:00am -1.0 -4.4 -2.3 91 0.4 W 6 11 3 6 1025.1 1026.0 0.2
20/06:30am -0.7 -4.0 -1.3 96 0.2 S 6 7 3 4 1024.9 1025.8 0.2
20/06:00am 0.1 -2.3 -0.5 96 0.2 SW 2 9 1 5 1024.8 1025.7 0.2
20/05:30am 0.6 -1.4 0.0 96 0.2 CALM 0 0 0 0 1024.7 1025.6 0.2
20/05:00am 0.8 -1.2 0.2 96 0.2 CALM 0 0 0 0 1024.5 1025.4 0.2
20/04:30am 0.6 -2.7 0.0 96 0.2 SE 7 7 4 4 1024.5 1025.4 0.2
20/04:00am 0.6 -1.4 0.0 96 0.2 CALM 0 0 0 0 1024.4 1025.3 0.2
20/03:30am 0.5 -1.5 -0.2 95 0.3 CALM 0 0 0 0 1024.3 1025.2 0.2
20/03:00am 0.7 -1.3 -0.2 94 0.3 CALM 0 0 0 0 1024.8 1025.7 0.2
20/02:30am 0.5 -1.6 -0.5 93 0.4 CALM 0 0 0 0 1025.0 1025.9 0.2
20/02:00am 0.4 -1.7 -0.9 91 0.5 CALM 0 0 0 0 1025.1 1026.0 0.2
20/01:30am 1.2 -1.9 0.0 92 0.5 SSW 6 9 3 5 1025.0 1025.9 0.2
20/01:00am 0.6 -2.3 -0.8 90 0.5 SW 4 9 2 5 1024.8 1025.7 0.2
20/12:30am 0.4 -3.1 -1.5 87 0.7 SSE 7 9 4 5 1024.9 1025.8 0.2
20/12:00am 1.1 -2.2 -1.5 83 0.9 SSE 6 9 3 5 1025.0 1025.9 0.2
 
Date/Time
EST
Temp
°C
App
Temp
°C
Dew
Point
°C
Rel
Hum
%
Delta-T
°C
Wind Press
QNH
hPa
Press
MSL
hPa
Rain since
9am
mm
Dir  Spd
km/h
Gust
km/h
Spd
kts
Gust
kts
19/11:30pm 1.5 -2.0 -1.6 80 1.1 S 7 11 4 6 1025.0 1025.9 0.2
19/11:00pm 2.2 -1.3 -1.4 77 1.3 SSE 7 13 4 7 1024.8 1025.7 0.2
19/10:30pm 2.6 -0.9 -1.4 75 1.5 SSW 7 13 4 7 1025.0 1025.9 0.2
19/10:00pm 2.3 -1.2 -1.7 75 1.5 SW 7 9 4 5 1025.0 1025.9 0.2
19/09:30pm 2.4 -1.1 -1.4 76 1.4 SSW 7 9 4 5 1025.1 1026.0 0.2
19/09:00pm 2.5 -1.0 -1.3 76 1.4 SSW 7 11 4 6 1025.0 1025.9 0.2
19/08:30pm 1.9 -1.6 -1.2 80 1.2 SSW 7 9 4 5 1024.9 1025.8 0.2
19/08:00pm 1.3 -2.3 -1.9 79 1.2 S 7 9 4 5 1024.8 1025.7 0.2
19/07:30pm 1.8 -1.7 -1.6 78 1.3 S 7 9 4 5 1024.8 1025.7 0.2
19/07:00pm 1.5 -2.1 -2.1 77 1.3 S 7 11 4 6 1024.6 1025.5 0.2
19/06:30pm 2.1 -1.5 -2.2 73 1.6 S 7 9 4 5 1024.5 1025.4 0.2
19/06:00pm 3.2 -0.5 -2.5 66 2.1 S 7 15 4 8 1024.3 1025.2 0.2
19/05:30pm 4.7 0.0 -1.9 62 2.5 S 13 22 7 12 1023.8 1024.7 0.2
19/05:00pm 6.0 1.6 -2.6 54 3.2 S 11 19 6 10 1023.4 1024.3 0.2
19/04:30pm 6.6 1.7 -3.1 50 3.6 SW 13 20 7 11 1023.2 1024.1 0.2
19/04:00pm 7.8 2.6 -3.1 46 4.1 SSW 15 30 8 16 1023.0 1023.9 0.2
19/03:30pm 7.7 2.5 -2.9 47 4.1 SSW 15 26 8 14 1023.0 1023.9 0.2
19/03:00pm 7.4 2.1 -3.7 45 4.1 S 15 28 8 15 1022.8 1023.6 0.2
19/02:30pm 6.7 1.7 -4.4 45 4.0 S 13 20 7 11 1022.6 1023.5 0.2
19/02:00pm 7.8 2.9 -3.4 45 4.2 SSW 13 26 7 14 1022.6 1023.5 0.2

Other Formats:

Comma delimited format used in spreadsheet applications
http://www.bom.gov.au/fwo/IDV60801/IDV60801.94908.axf

JavaScript Object Notation format (JSON) in row-major order
http://www.bom.gov.au/fwo/IDV60801/IDV60801.94908.json